sensor_id;sensor_type;location;lat;lon;timestamp;P1;durP1;ratioP1;P2;durP2;ratioP2
3465;SDS011;1747;48.884;9.160;2023-09-19T00:00:05;2.70;;;0.90;;
3465;SDS011;1747;48.884;9.160;2023-09-19T00:02:37;1.50;;;0.80;;
3465;SDS011;1747;48.884;9.160;2023-09-19T00:05:05;2.53;;;0.80;;
3465;SDS011;1747;48.884;9.160;2023-09-19T00:07:32;1.30;;;0.70;;
3465;SDS011;1747;48.884;9.160;2023-09-19T00:10:01;0.93;;;0.70;;
3465;SDS011;1747;48.884;9.160;2023-09-19T00:12:29;4.00;;;0.80;;
3465;SDS011;1747;48.884;9.160;2023-09-19T00:14:58;1.17;;;0.70;;
3465;SDS011;1747;48.884;9.160;2023-09-19T00:17:25;1.85;;;0.70;;
3465;SDS011;1747;48.884;9.160;2023-09-19T00:19:55;2.25;;;0.88;;
3465;SDS011;1747;48.884;9.160;2023-09-19T00:22:22;0.95;;;0.73;;
3465;SDS011;1747;48.884;9.160;2023-09-19T00:24:51;1.35;;;0.98;;
3465;SDS011;1747;48.884;9.160;2023-09-19T00:27:18;1.83;;;0.95;;
3465;SDS011;1747;48.884;9.160;2023-09-19T00:29:45;2.60;;;0.85;;
3465;SDS011;1747;48.884;9.160;2023-09-19T00:32:13;2.50;;;0.90;;
3465;SDS011;1747;48.884;9.160;2023-09-19T00:34:40;1.17;;;0.90;;
3465;SDS011;1747;48.884;9.160;2023-09-19T00:37:07;1.92;;;0.80;;
3465;SDS011;1747;48.884;9.160;2023-09-19T00:39:36;4.10;;;1.00;;
3465;SDS011;1747;48.884;9.160;2023-09-19T00:42:03;4.13;;;0.80;;
3465;SDS011;1747;48.884;9.160;2023-09-19T00:44:30;1.15;;;0.80;;
3465;SDS011;1747;48.884;9.160;2023-09-19T00:46:59;1.15;;;0.70;;
3465;SDS011;1747;48.884;9.160;2023-09-19T00:49:28;1.95;;;0.63;;
3465;SDS011;1747;48.884;9.160;2023-09-19T00:51:55;0.80;;;0.70;;
3465;SDS011;1747;48.884;9.160;2023-09-19T00:54:22;2.28;;;0.88;;
3465;SDS011;1747;48.884;9.160;2023-09-19T00:56:50;0.88;;;0.70;;
3465;SDS011;1747;48.884;9.160;2023-09-19T00:59:19;1.60;;;0.85;;
3465;SDS011;1747;48.884;9.160;2023-09-19T01:01:47;1.90;;;0.82;;
3465;SDS011;1747;48.884;9.160;2023-09-19T01:04:18;2.38;;;0.90;;
3465;SDS011;1747;48.884;9.160;2023-09-19T01:06:46;2.20;;;0.80;;
3465;SDS011;1747;48.884;9.160;2023-09-19T01:09:17;1.42;;;0.70;;
3465;SDS011;1747;48.884;9.160;2023-09-19T01:11:45;1.85;;;0.73;;
3465;SDS011;1747;48.884;9.160;2023-09-19T01:14:20;0.80;;;0.55;;
3465;SDS011;1747;48.884;9.160;2023-09-19T01:16:57;0.80;;;0.77;;
3465;SDS011;1747;48.884;9.160;2023-09-19T01:19:53;2.55;;;0.68;;
3465;SDS011;1747;48.884;9.160;2023-09-19T01:22:46;0.73;;;0.57;;
3465;SDS011;1747;48.884;9.160;2023-09-19T01:25:42;2.55;;;1.20;;
3465;SDS011;1747;48.884;9.160;2023-09-19T01:28:34;3.13;;;0.90;;
3465;SDS011;1747;48.884;9.160;2023-09-19T01:31:13;0.60;;;0.60;;
3465;SDS011;1747;48.884;9.160;2023-09-19T01:33:54;1.00;;;0.80;;
3465;SDS011;1747;48.884;9.160;2023-09-19T01:36:26;0.98;;;0.55;;
3465;SDS011;1747;48.884;9.160;2023-09-19T01:38:54;1.63;;;0.80;;
3465;SDS011;1747;48.884;9.160;2023-09-19T01:41:23;0.98;;;0.60;;
3465;SDS011;1747;48.884;9.160;2023-09-19T01:43:54;0.77;;;0.75;;
3465;SDS011;1747;48.884;9.160;2023-09-19T01:46:24;1.65;;;0.52;;
3465;SDS011;1747;48.884;9.160;2023-09-19T01:48:57;0.98;;;0.70;;
3465;SDS011;1747;48.884;9.160;2023-09-19T01:51:37;2.25;;;0.80;;
3465;SDS011;1747;48.884;9.160;2023-09-19T01:54:11;3.58;;;0.90;;
3465;SDS011;1747;48.884;9.160;2023-09-19T01:56:45;1.83;;;0.80;;
3465;SDS011;1747;48.884;9.160;2023-09-19T01:59:21;1.30;;;0.80;;
3465;SDS011;1747;48.884;9.160;2023-09-19T02:01:53;2.38;;;0.80;;
3465;SDS011;1747;48.884;9.160;2023-09-19T02:04:21;2.60;;;0.60;;
3465;SDS011;1747;48.884;9.160;2023-09-19T02:06:48;1.45;;;0.98;;
3465;SDS011;1747;48.884;9.160;2023-09-19T02:09:15;1.38;;;0.70;;
3465;SDS011;1747;48.884;9.160;2023-09-19T02:11:42;1.45;;;0.55;;
3465;SDS011;1747;48.884;9.160;2023-09-19T02:14:08;0.68;;;0.60;;
3465;SDS011;1747;48.884;9.160;2023-09-19T02:16:35;1.00;;;0.70;;
3465;SDS011;1747;48.884;9.160;2023-09-19T02:19:04;2.45;;;0.75;;
3465;SDS011;1747;48.884;9.160;2023-09-19T02:21:31;2.00;;;0.70;;
3465;SDS011;1747;48.884;9.160;2023-09-19T02:23:58;1.65;;;0.60;;
3465;SDS011;1747;48.884;9.160;2023-09-19T02:26:25;2.10;;;0.65;;
3465;SDS011;1747;48.884;9.160;2023-09-19T02:28:52;1.35;;;0.80;;
3465;SDS011;1747;48.884;9.160;2023-09-19T02:31:19;1.50;;;0.70;;
3465;SDS011;1747;48.884;9.160;2023-09-19T02:33:46;1.75;;;0.60;;
3465;SDS011;1747;48.884;9.160;2023-09-19T02:36:14;0.70;;;0.55;;
3465;SDS011;1747;48.884;9.160;2023-09-19T02:38:42;1.42;;;0.73;;
3465;SDS011;1747;48.884;9.160;2023-09-19T02:41:09;0.50;;;0.47;;
3465;SDS011;1747;48.884;9.160;2023-09-19T02:43:36;2.20;;;0.80;;
3465;SDS011;1747;48.884;9.160;2023-09-19T02:46:03;1.17;;;0.80;;
3465;SDS011;1747;48.884;9.160;2023-09-19T02:48:30;1.25;;;0.60;;
3465;SDS011;1747;48.884;9.160;2023-09-19T02:50:59;2.20;;;0.52;;
3465;SDS011;1747;48.884;9.160;2023-09-19T02:53:28;2.25;;;0.52;;
3465;SDS011;1747;48.884;9.160;2023-09-19T02:55:56;1.83;;;0.82;;
3465;SDS011;1747;48.884;9.160;2023-09-19T02:58:24;2.60;;;0.95;;
3465;SDS011;1747;48.884;9.160;2023-09-19T03:00:52;2.17;;;1.05;;
3465;SDS011;1747;48.884;9.160;2023-09-19T03:03:20;2.63;;;0.70;;
3465;SDS011;1747;48.884;9.160;2023-09-19T03:05:48;0.70;;;0.55;;
3465;SDS011;1747;48.884;9.160;2023-09-19T03:08:16;1.25;;;0.70;;
3465;SDS011;1747;48.884;9.160;2023-09-19T03:10:54;3.72;;;0.50;;
3465;SDS011;1747;48.884;9.160;2023-09-19T03:13:21;1.02;;;0.68;;
3465;SDS011;1747;48.884;9.160;2023-09-19T03:15:49;1.05;;;0.60;;
3465;SDS011;1747;48.884;9.160;2023-09-19T03:18:16;1.35;;;0.65;;
3465;SDS011;1747;48.884;9.160;2023-09-19T03:20:43;3.30;;;0.80;;
3465;SDS011;1747;48.884;9.160;2023-09-19T03:23:09;1.13;;;0.60;;
3465;SDS011;1747;48.884;9.160;2023-09-19T03:25:38;3.30;;;0.82;;
3465;SDS011;1747;48.884;9.160;2023-09-19T03:28:06;0.77;;;0.60;;
3465;SDS011;1747;48.884;9.160;2023-09-19T03:30:34;2.97;;;0.70;;
3465;SDS011;1747;48.884;9.160;2023-09-19T03:33:01;1.92;;;0.80;;
3465;SDS011;1747;48.884;9.160;2023-09-19T03:35:29;0.70;;;0.60;;
3465;SDS011;1747;48.884;9.160;2023-09-19T03:37:56;3.78;;;0.80;;
3465;SDS011;1747;48.884;9.160;2023-09-19T03:40:23;1.80;;;0.65;;
3465;SDS011;1747;48.884;9.160;2023-09-19T03:42:51;1.95;;;0.68;;
3465;SDS011;1747;48.884;9.160;2023-09-19T03:45:19;1.08;;;0.65;;
3465;SDS011;1747;48.884;9.160;2023-09-19T03:47:45;0.57;;;0.50;;
3465;SDS011;1747;48.884;9.160;2023-09-19T03:50:13;1.00;;;0.70;;
3465;SDS011;1747;48.884;9.160;2023-09-19T03:52:42;1.25;;;0.68;;
3465;SDS011;1747;48.884;9.160;2023-09-19T03:55:09;1.15;;;0.73;;
3465;SDS011;1747;48.884;9.160;2023-09-19T03:57:36;1.27;;;0.70;;
3465;SDS011;1747;48.884;9.160;2023-09-19T04:00:03;2.10;;;0.80;;
3465;SDS011;1747;48.884;9.160;2023-09-19T04:02:37;2.50;;;0.80;;
3465;SDS011;1747;48.884;9.160;2023-09-19T04:05:05;3.30;;;1.00;;
3465;SDS011;1747;48.884;9.160;2023-09-19T04:07:32;3.00;;;0.90;;
3465;SDS011;1747;48.884;9.160;2023-09-19T04:09:59;1.88;;;0.93;;
3465;SDS011;1747;48.884;9.160;2023-09-19T04:12:26;3.10;;;0.98;;
3465;SDS011;1747;48.884;9.160;2023-09-19T04:14:53;3.00;;;0.90;;
3465;SDS011;1747;48.884;9.160;2023-09-19T04:17:19;1.33;;;0.90;;
3465;SDS011;1747;48.884;9.160;2023-09-19T04:19:47;1.17;;;0.90;;
3465;SDS011;1747;48.884;9.160;2023-09-19T04:22:14;2.00;;;0.95;;
3465;SDS011;1747;48.884;9.160;2023-09-19T04:24:41;1.98;;;0.77;;
3465;SDS011;1747;48.884;9.160;2023-09-19T04:27:08;1.88;;;0.90;;
3465;SDS011;1747;48.884;9.160;2023-09-19T04:29:37;3.90;;;0.90;;
3465;SDS011;1747;48.884;9.160;2023-09-19T04:32:04;1.88;;;0.88;;
3465;SDS011;1747;48.884;9.160;2023-09-19T04:34:32;1.40;;;0.90;;
3465;SDS011;1747;48.884;9.160;2023-09-19T04:37:00;2.40;;;1.23;;
3465;SDS011;1747;48.884;9.160;2023-09-19T04:39:28;2.10;;;0.90;;
3465;SDS011;1747;48.884;9.160;2023-09-19T04:41:55;1.20;;;1.05;;
3465;SDS011;1747;48.884;9.160;2023-09-19T04:44:23;2.80;;;1.05;;
3465;SDS011;1747;48.884;9.160;2023-09-19T04:46:49;2.60;;;1.30;;
3465;SDS011;1747;48.884;9.160;2023-09-19T04:49:17;3.97;;;1.45;;
3465;SDS011;1747;48.884;9.160;2023-09-19T04:51:44;5.35;;;1.27;;
3465;SDS011;1747;48.884;9.160;2023-09-19T04:54:13;3.25;;;1.13;;
3465;SDS011;1747;48.884;9.160;2023-09-19T04:56:40;2.30;;;1.08;;
3465;SDS011;1747;48.884;9.160;2023-09-19T04:59:07;2.55;;;0.90;;
3465;SDS011;1747;48.884;9.160;2023-09-19T05:01:35;7.05;;;1.27;;
3465;SDS011;1747;48.884;9.160;2023-09-19T05:04:02;5.03;;;1.17;;
3465;SDS011;1747;48.884;9.160;2023-09-19T05:06:30;2.90;;;0.82;;
3465;SDS011;1747;48.884;9.160;2023-09-19T05:09:00;1.75;;;1.65;;
3465;SDS011;1747;48.884;9.160;2023-09-19T05:11:31;3.03;;;1.40;;
3465;SDS011;1747;48.884;9.160;2023-09-19T05:13:59;5.35;;;1.80;;
3465;SDS011;1747;48.884;9.160;2023-09-19T05:16:28;5.00;;;0.95;;
3465;SDS011;1747;48.884;9.160;2023-09-19T05:18:56;3.65;;;1.23;;
3465;SDS011;1747;48.884;9.160;2023-09-19T05:21:23;2.90;;;1.10;;
3465;SDS011;1747;48.884;9.160;2023-09-19T05:23:51;3.58;;;1.15;;
3465;SDS011;1747;48.884;9.160;2023-09-19T05:26:18;4.35;;;1.10;;
3465;SDS011;1747;48.884;9.160;2023-09-19T05:28:47;2.03;;;1.10;;
3465;SDS011;1747;48.884;9.160;2023-09-19T05:31:14;2.17;;;1.05;;
3465;SDS011;1747;48.884;9.160;2023-09-19T05:33:41;4.53;;;1.33;;
3465;SDS011;1747;48.884;9.160;2023-09-19T05:36:08;2.08;;;1.30;;
3465;SDS011;1747;48.884;9.160;2023-09-19T05:38:37;1.00;;;0.85;;
3465;SDS011;1747;48.884;9.160;2023-09-19T05:41:05;6.20;;;0.95;;
3465;SDS011;1747;48.884;9.160;2023-09-19T05:43:33;3.63;;;0.90;;
3465;SDS011;1747;48.884;9.160;2023-09-19T05:46:03;1.38;;;1.00;;
3465;SDS011;1747;48.884;9.160;2023-09-19T05:48:30;2.75;;;0.93;;
3465;SDS011;1747;48.884;9.160;2023-09-19T05:50:57;2.20;;;0.93;;
3465;SDS011;1747;48.884;9.160;2023-09-19T05:53:26;2.25;;;0.85;;
3465;SDS011;1747;48.884;9.160;2023-09-19T05:55:53;2.05;;;0.90;;
3465;SDS011;1747;48.884;9.160;2023-09-19T05:58:20;3.13;;;1.33;;
3465;SDS011;1747;48.884;9.160;2023-09-19T06:00:47;2.85;;;1.40;;
3465;SDS011;1747;48.884;9.160;2023-09-19T06:03:16;1.52;;;1.20;;
3465;SDS011;1747;48.884;9.160;2023-09-19T06:05:44;3.35;;;1.40;;
3465;SDS011;1747;48.884;9.160;2023-09-19T06:08:11;4.60;;;1.63;;
3465;SDS011;1747;48.884;9.160;2023-09-19T06:10:38;4.38;;;1.35;;
3465;SDS011;1747;48.884;9.160;2023-09-19T06:13:05;2.53;;;1.42;;
3465;SDS011;1747;48.884;9.160;2023-09-19T06:15:34;2.75;;;1.50;;
3465;SDS011;1747;48.884;9.160;2023-09-19T06:18:01;4.03;;;1.52;;
3465;SDS011;1747;48.884;9.160;2023-09-19T06:20:31;3.38;;;1.40;;
3465;SDS011;1747;48.884;9.160;2023-09-19T06:22:58;5.88;;;1.38;;
3465;SDS011;1747;48.884;9.160;2023-09-19T06:25:27;2.53;;;1.30;;
3465;SDS011;1747;48.884;9.160;2023-09-19T06:27:53;1.70;;;1.25;;
3465;SDS011;1747;48.884;9.160;2023-09-19T06:30:21;3.35;;;1.92;;
3465;SDS011;1747;48.884;9.160;2023-09-19T06:32:49;7.28;;;1.60;;
3465;SDS011;1747;48.884;9.160;2023-09-19T06:35:21;4.03;;;1.50;;
3465;SDS011;1747;48.884;9.160;2023-09-19T06:37:50;1.88;;;1.17;;
3465;SDS011;1747;48.884;9.160;2023-09-19T06:40:17;2.65;;;1.48;;
3465;SDS011;1747;48.884;9.160;2023-09-19T06:42:45;4.28;;;1.35;;
3465;SDS011;1747;48.884;9.160;2023-09-19T06:45:13;2.83;;;1.33;;
3465;SDS011;1747;48.884;9.160;2023-09-19T06:47:43;2.83;;;1.58;;
3465;SDS011;1747;48.884;9.160;2023-09-19T06:50:11;4.05;;;1.40;;
3465;SDS011;1747;48.884;9.160;2023-09-19T06:52:39;2.65;;;1.20;;
3465;SDS011;1747;48.884;9.160;2023-09-19T06:55:08;1.83;;;1.17;;
3465;SDS011;1747;48.884;9.160;2023-09-19T06:57:36;2.95;;;1.50;;
3465;SDS011;1747;48.884;9.160;2023-09-19T07:00:06;5.65;;;1.58;;
3465;SDS011;1747;48.884;9.160;2023-09-19T07:02:37;1.88;;;1.30;;
3465;SDS011;1747;48.884;9.160;2023-09-19T07:05:06;2.38;;;1.10;;
3465;SDS011;1747;48.884;9.160;2023-09-19T07:07:33;2.65;;;1.10;;
3465;SDS011;1747;48.884;9.160;2023-09-19T07:10:00;3.58;;;1.67;;
3465;SDS011;1747;48.884;9.160;2023-09-19T07:12:28;2.88;;;1.38;;
3465;SDS011;1747;48.884;9.160;2023-09-19T07:14:55;3.90;;;1.50;;
3465;SDS011;1747;48.884;9.160;2023-09-19T07:17:22;7.50;;;1.73;;
3465;SDS011;1747;48.884;9.160;2023-09-19T07:19:50;1.65;;;1.13;;
3465;SDS011;1747;48.884;9.160;2023-09-19T07:22:16;1.67;;;1.35;;
3465;SDS011;1747;48.884;9.160;2023-09-19T07:24:43;1.98;;;1.63;;
3465;SDS011;1747;48.884;9.160;2023-09-19T07:27:10;4.68;;;1.67;;
3465;SDS011;1747;48.884;9.160;2023-09-19T07:29:38;3.63;;;1.50;;
3465;SDS011;1747;48.884;9.160;2023-09-19T07:32:05;5.65;;;1.05;;
3465;SDS011;1747;48.884;9.160;2023-09-19T07:34:33;6.65;;;1.50;;
3465;SDS011;1747;48.884;9.160;2023-09-19T07:37:00;4.72;;;1.48;;
3465;SDS011;1747;48.884;9.160;2023-09-19T07:39:27;1.95;;;1.20;;
3465;SDS011;1747;48.884;9.160;2023-09-19T07:41:54;3.85;;;1.48;;
3465;SDS011;1747;48.884;9.160;2023-09-19T07:44:21;5.28;;;1.30;;
3465;SDS011;1747;48.884;9.160;2023-09-19T07:46:52;4.22;;;1.35;;
3465;SDS011;1747;48.884;9.160;2023-09-19T07:49:19;4.50;;;1.75;;
3465;SDS011;1747;48.884;9.160;2023-09-19T07:51:46;3.83;;;1.40;;
3465;SDS011;1747;48.884;9.160;2023-09-19T07:54:13;4.40;;;1.65;;
3465;SDS011;1747;48.884;9.160;2023-09-19T07:56:40;5.00;;;1.67;;
3465;SDS011;1747;48.884;9.160;2023-09-19T07:59:07;3.38;;;1.48;;
3465;SDS011;1747;48.884;9.160;2023-09-19T08:01:36;4.57;;;1.23;;
3465;SDS011;1747;48.884;9.160;2023-09-19T08:04:06;2.78;;;1.42;;
3465;SDS011;1747;48.884;9.160;2023-09-19T08:06:33;2.78;;;1.30;;
3465;SDS011;1747;48.884;9.160;2023-09-19T08:09:00;3.15;;;1.30;;
3465;SDS011;1747;48.884;9.160;2023-09-19T08:11:32;3.90;;;1.15;;
3465;SDS011;1747;48.884;9.160;2023-09-19T08:13:59;3.83;;;1.20;;
3465;SDS011;1747;48.884;9.160;2023-09-19T08:16:26;2.38;;;1.20;;
3465;SDS011;1747;48.884;9.160;2023-09-19T08:18:53;2.15;;;1.15;;
3465;SDS011;1747;48.884;9.160;2023-09-19T08:21:22;2.90;;;1.20;;
3465;SDS011;1747;48.884;9.160;2023-09-19T08:23:50;4.55;;;1.30;;
3465;SDS011;1747;48.884;9.160;2023-09-19T08:26:17;3.78;;;1.30;;
3465;SDS011;1747;48.884;9.160;2023-09-19T08:28:45;3.63;;;0.90;;
3465;SDS011;1747;48.884;9.160;2023-09-19T08:31:11;3.95;;;1.13;;
3465;SDS011;1747;48.884;9.160;2023-09-19T08:33:39;2.80;;;1.30;;
3465;SDS011;1747;48.884;9.160;2023-09-19T08:36:06;2.53;;;1.20;;
3465;SDS011;1747;48.884;9.160;2023-09-19T08:38:35;2.58;;;1.02;;
3465;SDS011;1747;48.884;9.160;2023-09-19T08:41:05;2.85;;;0.95;;
3465;SDS011;1747;48.884;9.160;2023-09-19T08:43:32;1.83;;;1.08;;
3465;SDS011;1747;48.884;9.160;2023-09-19T08:46:03;2.03;;;0.98;;
3465;SDS011;1747;48.884;9.160;2023-09-19T08:48:36;2.20;;;1.20;;
3465;SDS011;1747;48.884;9.160;2023-09-19T08:51:10;2.30;;;1.23;;
3465;SDS011;1747;48.884;9.160;2023-09-19T08:53:47;4.03;;;1.38;;
3465;SDS011;1747;48.884;9.160;2023-09-19T08:56:18;1.60;;;1.20;;
3465;SDS011;1747;48.884;9.160;2023-09-19T08:58:48;3.25;;;0.95;;
3465;SDS011;1747;48.884;9.160;2023-09-19T09:01:18;2.90;;;1.20;;
3465;SDS011;1747;48.884;9.160;2023-09-19T09:03:49;1.40;;;0.90;;
3465;SDS011;1747;48.884;9.160;2023-09-19T09:06:17;1.92;;;1.23;;
3465;SDS011;1747;48.884;9.160;2023-09-19T09:08:46;2.22;;;1.20;;
3465;SDS011;1747;48.884;9.160;2023-09-19T09:11:14;3.45;;;1.20;;
3465;SDS011;1747;48.884;9.160;2023-09-19T09:13:42;2.45;;;1.00;;
3465;SDS011;1747;48.884;9.160;2023-09-19T09:16:09;4.13;;;1.17;;
3465;SDS011;1747;48.884;9.160;2023-09-19T09:18:37;1.65;;;1.10;;
3465;SDS011;1747;48.884;9.160;2023-09-19T09:21:05;4.00;;;1.08;;
3465;SDS011;1747;48.884;9.160;2023-09-19T09:23:32;2.22;;;1.08;;
3465;SDS011;1747;48.884;9.160;2023-09-19T09:26:00;1.90;;;1.00;;
3465;SDS011;1747;48.884;9.160;2023-09-19T09:28:30;1.23;;;0.95;;
3465;SDS011;1747;48.884;9.160;2023-09-19T09:30:58;2.65;;;1.27;;
3465;SDS011;1747;48.884;9.160;2023-09-19T09:33:27;2.40;;;1.10;;
3465;SDS011;1747;48.884;9.160;2023-09-19T09:35:55;1.08;;;0.98;;
3465;SDS011;1747;48.884;9.160;2023-09-19T09:38:26;1.83;;;0.90;;
3465;SDS011;1747;48.884;9.160;2023-09-19T09:40:53;2.13;;;1.23;;
3465;SDS011;1747;48.884;9.160;2023-09-19T09:43:28;2.85;;;1.30;;
3465;SDS011;1747;48.884;9.160;2023-09-19T09:46:10;2.75;;;1.00;;
3465;SDS011;1747;48.884;9.160;2023-09-19T09:49:10;1.98;;;1.10;;
3465;SDS011;1747;48.884;9.160;2023-09-19T09:51:45;1.20;;;1.05;;
3465;SDS011;1747;48.884;9.160;2023-09-19T09:54:22;1.00;;;0.90;;
3465;SDS011;1747;48.884;9.160;2023-09-19T09:56:52;3.15;;;1.77;;
3465;SDS011;1747;48.884;9.160;2023-09-19T10:02:14;1.77;;;1.08;;
3465;SDS011;1747;48.884;9.160;2023-09-19T10:04:47;2.65;;;1.10;;
3465;SDS011;1747;48.884;9.160;2023-09-19T10:07:33;2.13;;;1.15;;
3465;SDS011;1747;48.884;9.160;2023-09-19T10:10:03;1.67;;;1.00;;
3465;SDS011;1747;48.884;9.160;2023-09-19T10:12:42;1.42;;;1.02;;
3465;SDS011;1747;48.884;9.160;2023-09-19T10:15:12;3.55;;;1.35;;
3465;SDS011;1747;48.884;9.160;2023-09-19T10:17:41;3.60;;;0.90;;
3465;SDS011;1747;48.884;9.160;2023-09-19T10:20:11;3.30;;;1.30;;
3465;SDS011;1747;48.884;9.160;2023-09-19T10:22:48;3.25;;;1.00;;
3465;SDS011;1747;48.884;9.160;2023-09-19T10:25:23;2.10;;;0.93;;
3465;SDS011;1747;48.884;9.160;2023-09-19T10:27:54;1.90;;;1.20;;
3465;SDS011;1747;48.884;9.160;2023-09-19T10:30:24;2.65;;;1.20;;
3465;SDS011;1747;48.884;9.160;2023-09-19T10:32:55;1.85;;;1.15;;
3465;SDS011;1747;48.884;9.160;2023-09-19T10:35:25;2.97;;;1.20;;
3465;SDS011;1747;48.884;9.160;2023-09-19T10:37:54;3.15;;;1.08;;
3465;SDS011;1747;48.884;9.160;2023-09-19T10:40:32;1.80;;;1.05;;
3465;SDS011;1747;48.884;9.160;2023-09-19T10:43:02;3.33;;;1.10;;
3465;SDS011;1747;48.884;9.160;2023-09-19T10:45:30;1.70;;;1.00;;
3465;SDS011;1747;48.884;9.160;2023-09-19T10:47:59;2.10;;;1.05;;
3465;SDS011;1747;48.884;9.160;2023-09-19T10:50:27;4.65;;;1.45;;
3465;SDS011;1747;48.884;9.160;2023-09-19T10:52:58;2.65;;;1.30;;
3465;SDS011;1747;48.884;9.160;2023-09-19T10:55:31;4.40;;;1.42;;
3465;SDS011;1747;48.884;9.160;2023-09-19T10:58:00;1.27;;;0.88;;
3465;SDS011;1747;48.884;9.160;2023-09-19T11:00:46;2.70;;;1.08;;
3465;SDS011;1747;48.884;9.160;2023-09-19T11:03:18;2.22;;;0.90;;
3465;SDS011;1747;48.884;9.160;2023-09-19T11:06:08;1.17;;;0.93;;
3465;SDS011;1747;48.884;9.160;2023-09-19T11:08:51;1.90;;;0.95;;
3465;SDS011;1747;48.884;9.160;2023-09-19T11:11:42;2.83;;;1.00;;
3465;SDS011;1747;48.884;9.160;2023-09-19T11:14:14;1.30;;;1.13;;
3465;SDS011;1747;48.884;9.160;2023-09-19T11:20:19;3.25;;;1.42;;
3465;SDS011;1747;48.884;9.160;2023-09-19T11:25:52;2.17;;;1.00;;
3465;SDS011;1747;48.884;9.160;2023-09-19T11:28:33;2.80;;;0.90;;
3465;SDS011;1747;48.884;9.160;2023-09-19T11:40:34;1.00;;;0.93;;
3465;SDS011;1747;48.884;9.160;2023-09-19T11:46:05;2.25;;;1.40;;
3465;SDS011;1747;48.884;9.160;2023-09-19T11:48:33;2.22;;;1.10;;
3465;SDS011;1747;48.884;9.160;2023-09-19T11:51:09;2.97;;;1.15;;
3465;SDS011;1747;48.884;9.160;2023-09-19T11:53:49;3.20;;;1.10;;
3465;SDS011;1747;48.884;9.160;2023-09-19T11:56:17;1.75;;;1.00;;
3465;SDS011;1747;48.884;9.160;2023-09-19T11:58:45;1.15;;;0.90;;
3465;SDS011;1747;48.884;9.160;2023-09-19T12:01:20;2.25;;;1.08;;
3465;SDS011;1747;48.884;9.160;2023-09-19T12:03:52;1.65;;;0.90;;
3465;SDS011;1747;48.884;9.160;2023-09-19T12:06:22;3.88;;;1.65;;
3465;SDS011;1747;48.884;9.160;2023-09-19T12:08:49;1.23;;;0.90;;
3465;SDS011;1747;48.884;9.160;2023-09-19T12:11:19;2.13;;;1.13;;
3465;SDS011;1747;48.884;9.160;2023-09-19T12:13:48;2.30;;;1.17;;
3465;SDS011;1747;48.884;9.160;2023-09-19T12:16:17;2.15;;;1.10;;
3465;SDS011;1747;48.884;9.160;2023-09-19T12:18:47;1.40;;;0.90;;
3465;SDS011;1747;48.884;9.160;2023-09-19T12:21:24;1.48;;;0.93;;
3465;SDS011;1747;48.884;9.160;2023-09-19T12:23:59;3.50;;;1.00;;
3465;SDS011;1747;48.884;9.160;2023-09-19T12:26:39;2.17;;;1.00;;
3465;SDS011;1747;48.884;9.160;2023-09-19T12:29:15;3.30;;;1.23;;
3465;SDS011;1747;48.884;9.160;2023-09-19T12:31:52;1.85;;;1.10;;
3465;SDS011;1747;48.884;9.160;2023-09-19T12:34:22;1.80;;;1.23;;
3465;SDS011;1747;48.884;9.160;2023-09-19T12:39:38;1.38;;;1.02;;
3465;SDS011;1747;48.884;9.160;2023-09-19T12:42:07;1.30;;;1.00;;
3465;SDS011;1747;48.884;9.160;2023-09-19T12:44:36;1.67;;;1.00;;
3465;SDS011;1747;48.884;9.160;2023-09-19T12:47:12;2.17;;;0.95;;
3465;SDS011;1747;48.884;9.160;2023-09-19T12:52:42;1.23;;;0.98;;
3465;SDS011;1747;48.884;9.160;2023-09-19T12:55:25;1.98;;;1.00;;
3465;SDS011;1747;48.884;9.160;2023-09-19T12:57:59;1.17;;;1.08;;
3465;SDS011;1747;48.884;9.160;2023-09-19T13:00:34;1.65;;;1.17;;
3465;SDS011;1747;48.884;9.160;2023-09-19T13:03:16;3.33;;;1.20;;
3465;SDS011;1747;48.884;9.160;2023-09-19T13:05:47;4.20;;;1.30;;
3465;SDS011;1747;48.884;9.160;2023-09-19T13:08:20;3.55;;;1.10;;
3465;SDS011;1747;48.884;9.160;2023-09-19T13:11:01;1.13;;;0.90;;
3465;SDS011;1747;48.884;9.160;2023-09-19T13:13:39;2.72;;;1.20;;
3465;SDS011;1747;48.884;9.160;2023-09-19T13:16:09;2.08;;;1.13;;
3465;SDS011;1747;48.884;9.160;2023-09-19T13:18:44;2.22;;;1.10;;
3465;SDS011;1747;48.884;9.160;2023-09-19T13:21:13;2.13;;;1.10;;
3465;SDS011;1747;48.884;9.160;2023-09-19T13:23:49;2.10;;;1.10;;
3465;SDS011;1747;48.884;9.160;2023-09-19T13:26:24;1.95;;;1.10;;
3465;SDS011;1747;48.884;9.160;2023-09-19T13:28:51;1.67;;;0.90;;
3465;SDS011;1747;48.884;9.160;2023-09-19T13:31:17;1.65;;;1.10;;
3465;SDS011;1747;48.884;9.160;2023-09-19T13:33:47;1.17;;;1.08;;
3465;SDS011;1747;48.884;9.160;2023-09-19T13:36:15;3.92;;;1.10;;
3465;SDS011;1747;48.884;9.160;2023-09-19T13:38:44;2.95;;;1.17;;
3465;SDS011;1747;48.884;9.160;2023-09-19T13:41:13;1.95;;;1.17;;
3465;SDS011;1747;48.884;9.160;2023-09-19T13:43:41;3.65;;;1.20;;
3465;SDS011;1747;48.884;9.160;2023-09-19T13:46:14;2.83;;;1.13;;
3465;SDS011;1747;48.884;9.160;2023-09-19T13:48:41;1.70;;;1.30;;
3465;SDS011;1747;48.884;9.160;2023-09-19T13:51:09;2.80;;;1.00;;
3465;SDS011;1747;48.884;9.160;2023-09-19T13:53:36;2.20;;;1.23;;
3465;SDS011;1747;48.884;9.160;2023-09-19T13:56:03;2.13;;;1.10;;
3465;SDS011;1747;48.884;9.160;2023-09-19T13:58:30;1.88;;;1.20;;
3465;SDS011;1747;48.884;9.160;2023-09-19T14:00:58;2.40;;;1.27;;
3465;SDS011;1747;48.884;9.160;2023-09-19T14:03:25;1.50;;;1.00;;
3465;SDS011;1747;48.884;9.160;2023-09-19T14:05:53;2.05;;;1.10;;
3465;SDS011;1747;48.884;9.160;2023-09-19T14:08:22;1.77;;;1.10;;
3465;SDS011;1747;48.884;9.160;2023-09-19T14:10:49;1.33;;;0.98;;
3465;SDS011;1747;48.884;9.160;2023-09-19T14:13:16;2.90;;;0.95;;
3465;SDS011;1747;48.884;9.160;2023-09-19T14:15:43;2.55;;;1.15;;
3465;SDS011;1747;48.884;9.160;2023-09-19T14:18:09;3.53;;;1.30;;
3465;SDS011;1747;48.884;9.160;2023-09-19T14:20:37;4.03;;;1.20;;
3465;SDS011;1747;48.884;9.160;2023-09-19T14:23:06;1.13;;;0.98;;
3465;SDS011;1747;48.884;9.160;2023-09-19T14:25:35;1.63;;;1.00;;
3465;SDS011;1747;48.884;9.160;2023-09-19T14:28:03;2.65;;;1.17;;
3465;SDS011;1747;48.884;9.160;2023-09-19T14:30:32;1.30;;;0.98;;
3465;SDS011;1747;48.884;9.160;2023-09-19T14:32:59;2.45;;;1.13;;
3465;SDS011;1747;48.884;9.160;2023-09-19T14:35:26;2.95;;;1.23;;
3465;SDS011;1747;48.884;9.160;2023-09-19T14:37:52;1.65;;;1.00;;
3465;SDS011;1747;48.884;9.160;2023-09-19T14:40:20;1.73;;;1.05;;
3465;SDS011;1747;48.884;9.160;2023-09-19T14:42:50;2.97;;;1.13;;
3465;SDS011;1747;48.884;9.160;2023-09-19T14:45:17;2.30;;;1.20;;
3465;SDS011;1747;48.884;9.160;2023-09-19T14:47:45;2.63;;;1.02;;
3465;SDS011;1747;48.884;9.160;2023-09-19T14:50:16;3.30;;;1.20;;
3465;SDS011;1747;48.884;9.160;2023-09-19T14:52:43;3.22;;;1.10;;
3465;SDS011;1747;48.884;9.160;2023-09-19T14:55:10;1.90;;;1.10;;
3465;SDS011;1747;48.884;9.160;2023-09-19T14:57:39;4.93;;;1.30;;
3465;SDS011;1747;48.884;9.160;2023-09-19T15:00:12;1.85;;;1.10;;
3465;SDS011;1747;48.884;9.160;2023-09-19T15:02:39;1.95;;;1.10;;
3465;SDS011;1747;48.884;9.160;2023-09-19T15:05:06;1.40;;;1.02;;
3465;SDS011;1747;48.884;9.160;2023-09-19T15:07:34;2.40;;;1.23;;
3465;SDS011;1747;48.884;9.160;2023-09-19T15:10:07;1.40;;;1.20;;
3465;SDS011;1747;48.884;9.160;2023-09-19T15:12:35;1.67;;;1.27;;
3465;SDS011;1747;48.884;9.160;2023-09-19T15:15:03;1.73;;;0.90;;
3465;SDS011;1747;48.884;9.160;2023-09-19T15:17:36;2.25;;;1.10;;
3465;SDS011;1747;48.884;9.160;2023-09-19T15:20:03;2.58;;;1.00;;
3465;SDS011;1747;48.884;9.160;2023-09-19T15:22:31;2.15;;;1.00;;
3465;SDS011;1747;48.884;9.160;2023-09-19T15:25:00;3.08;;;1.10;;
3465;SDS011;1747;48.884;9.160;2023-09-19T15:27:29;4.20;;;1.33;;
3465;SDS011;1747;48.884;9.160;2023-09-19T15:29:57;1.33;;;1.00;;
3465;SDS011;1747;48.884;9.160;2023-09-19T15:32:25;2.53;;;1.08;;
3465;SDS011;1747;48.884;9.160;2023-09-19T15:34:54;1.60;;;1.10;;
3465;SDS011;1747;48.884;9.160;2023-09-19T15:37:21;1.55;;;0.90;;
3465;SDS011;1747;48.884;9.160;2023-09-19T15:39:48;0.93;;;0.75;;
3465;SDS011;1747;48.884;9.160;2023-09-19T15:42:17;0.82;;;0.65;;
3465;SDS011;1747;48.884;9.160;2023-09-19T15:44:53;1.98;;;0.80;;
3465;SDS011;1747;48.884;9.160;2023-09-19T15:47:20;2.22;;;0.82;;
3465;SDS011;1747;48.884;9.160;2023-09-19T15:49:48;1.20;;;0.90;;
3465;SDS011;1747;48.884;9.160;2023-09-19T15:52:19;1.05;;;0.95;;
3465;SDS011;1747;48.884;9.160;2023-09-19T15:54:50;1.00;;;0.90;;
3465;SDS011;1747;48.884;9.160;2023-09-19T15:57:17;1.15;;;0.80;;